createdAt,value
2016-04-28T00:00:01.963Z,99.82
2016-04-28T00:01:01.934Z,99.72
2016-04-28T00:02:01.905Z,99.72
2016-04-28T00:03:01.876Z,99.72
2016-04-28T00:04:01.849Z,99.63
2016-04-28T00:05:01.820Z,99.72
2016-04-28T00:06:01.791Z,99.72
2016-04-28T00:07:01.762Z,99.72
2016-04-28T00:08:01.735Z,99.72
2016-04-28T00:09:01.705Z,99.99
2016-04-28T00:10:01.676Z,99.99
2016-04-28T00:11:02.382Z,99.82
2016-04-28T00:12:01.620Z,99.99
2016-04-28T00:13:01.576Z,99.82
2016-04-28T00:14:01.563Z,99.99
2016-04-28T00:15:01.534Z,99.99
2016-04-28T00:16:01.489Z,99.72
2016-04-28T00:17:01.477Z,99.91
2016-04-28T00:18:01.432Z,99.72
2016-04-28T00:19:01.404Z,99.99
2016-04-28T00:20:01.375Z,99.99
2016-04-28T00:21:01.347Z,99.82
2016-04-28T00:22:01.318Z,99.99
2016-04-28T00:23:01.306Z,99.91
2016-04-28T00:24:01.261Z,99.82
2016-04-28T00:25:01.233Z,99.82
2016-04-28T00:26:01.423Z,99.99
2016-04-28T00:27:01.176Z,99.99
2016-04-28T00:28:01.147Z,99.99
2016-04-28T00:29:01.118Z,99.99
2016-04-28T00:30:01.090Z,99.53
2016-04-28T00:31:01.061Z,99.25
2016-04-28T00:32:01.033Z,99.44
2016-04-28T00:33:01.004Z,99.44
2016-04-28T00:34:00.975Z,99.99
2016-04-28T00:35:00.947Z,99.99
2016-04-28T00:36:00.918Z,99.63
2016-04-28T00:37:00.890Z,99.82
2016-04-28T00:38:00.861Z,99.82
2016-04-28T00:39:00.833Z,99.99
2016-04-28T00:40:00.804Z,99.99
2016-04-28T00:41:00.791Z,99.82
2016-04-28T00:42:00.746Z,99.99
2016-04-28T00:43:00.719Z,99.99
2016-04-28T00:44:00.690Z,99.99
2016-04-28T00:45:00.662Z,99.99
2016-04-28T00:46:00.632Z,99.99
2016-04-28T00:47:00.604Z,99.99
2016-04-28T00:48:00.576Z,99.99
2016-04-28T00:49:00.547Z,99.82
2016-04-28T00:50:00.518Z,99.99
2016-04-28T00:51:00.490Z,99.72
2016-04-28T00:52:00.462Z,99.72
2016-04-28T00:53:00.433Z,99.99
2016-04-28T00:54:00.404Z,99.44
2016-04-28T00:55:00.376Z,99.99
2016-04-28T00:56:00.503Z,99.44
2016-04-28T00:57:00.897Z,99.99
2016-04-28T00:58:00.290Z,99.99
2016-04-28T00:59:00.246Z,99.82
2016-04-28T01:00:00.217Z,99.91
2016-04-28T01:01:00.189Z,99.91
2016-04-28T01:02:00.160Z,99.82
2016-04-28T01:03:00.132Z,99.91
2016-04-28T01:04:00.103Z,99.99
2016-04-28T01:05:00.075Z,99.99
2016-04-28T01:06:00.046Z,99.91
2016-04-28T01:07:00.018Z,99.99
2016-04-28T01:08:00.004Z,99.44
2016-04-28T01:08:59.960Z,99.44
2016-04-28T01:09:59.932Z,99.99
2016-04-28T01:10:59.903Z,99.82
2016-04-28T01:11:59.890Z,99.99
2016-04-28T01:12:59.846Z,99.44
2016-04-28T01:13:59.818Z,99.82
2016-04-28T01:14:59.789Z,99.72
2016-04-28T01:15:59.760Z,99.72
2016-04-28T01:16:59.732Z,99.63
2016-04-28T01:17:59.704Z,99.53
2016-04-28T01:18:59.675Z,99.72
2016-04-28T01:19:59.646Z,99.72
2016-04-28T01:20:59.617Z,99.44
2016-04-28T01:21:59.589Z,99.72
2016-04-28T01:22:59.561Z,99.99
2016-04-28T01:23:59.531Z,99.99
2016-04-28T01:24:59.503Z,99.99
2016-04-28T01:25:59.475Z,99.99
2016-04-28T01:26:59.447Z,99.99
2016-04-28T01:27:59.417Z,99.53
2016-04-28T01:28:59.389Z,99.44
2016-04-28T01:29:59.361Z,99.82
2016-04-28T01:30:59.333Z,99.72
2016-04-28T01:31:59.303Z,99.82
2016-04-28T01:32:59.274Z,99.82
2016-04-28T01:33:59.246Z,99.44
2016-04-28T01:34:59.218Z,99.72
2016-04-28T01:35:59.189Z,99.44
2016-04-28T01:36:59.144Z,99.63
2016-04-28T01:37:59.117Z,99.44
2016-04-28T01:38:59.104Z,99.34
2016-04-28T01:39:59.060Z,99.82
2016-04-28T01:40:59.046Z,99.53
2016-04-28T01:41:59.190Z,99.99
2016-04-28T01:42:58.974Z,99.82
2016-04-28T01:43:58.946Z,99.99
2016-04-28T01:44:58.916Z,99.82
2016-04-28T01:45:58.887Z,99.99
2016-04-28T01:46:58.860Z,99.99
2016-04-28T01:47:58.831Z,99.44
2016-04-28T01:48:58.802Z,99.44
2016-04-28T01:49:58.773Z,99.82
2016-04-28T01:50:58.746Z,99.82
2016-04-28T01:51:58.732Z,99.99
2016-04-28T01:52:58.687Z,99.99
2016-04-28T01:53:58.660Z,99.82
2016-04-28T01:54:58.631Z,99.82
2016-04-28T01:55:58.603Z,99.82
2016-04-28T01:56:58.573Z,99.99
2016-04-28T01:57:58.545Z,99.99
2016-04-28T01:58:58.516Z,99.99
2016-04-28T01:59:58.489Z,99.99
2016-04-28T02:00:58.459Z,99.99
2016-04-28T02:01:58.430Z,99.99
2016-04-28T02:02:58.403Z,99.99
2016-04-28T02:03:58.374Z,99.99
2016-04-28T02:04:58.345Z,99.99
2016-04-28T02:05:58.316Z,99.91
2016-04-28T02:06:58.288Z,99.91
2016-04-28T02:07:58.260Z,99.82
2016-04-28T02:08:58.231Z,99.82
2016-04-28T02:09:58.202Z,99.91
2016-04-28T02:10:59.768Z,99.91
2016-04-28T02:11:58.943Z,99.82
2016-04-28T02:12:58.116Z,99.91
2016-04-28T02:13:58.088Z,99.99
2016-04-28T02:14:58.059Z,99.99
2016-04-28T02:15:58.032Z,99.99
2016-04-28T02:16:58.002Z,99.99
2016-04-28T02:17:57.974Z,99.99
2016-04-28T02:18:57.946Z,99.99
2016-04-28T02:19:57.917Z,99.99
2016-04-28T02:20:57.888Z,99.99
2016-04-28T02:21:57.859Z,99.99
2016-04-28T02:22:57.852Z,99.99
2016-04-28T02:23:57.793Z,99.99
2016-04-28T02:24:57.765Z,99.99
2016-04-28T02:25:57.735Z,99.99
2016-04-28T02:26:57.707Z,99.99
2016-04-28T02:27:57.678Z,99.82
2016-04-28T02:28:57.651Z,99.72
2016-04-28T02:29:57.621Z,99.72
2016-04-28T02:30:57.593Z,99.34
2016-04-28T02:31:57.564Z,99.25
2016-04-28T02:32:57.536Z,99.25
2016-04-28T02:33:57.507Z,99.34
2016-04-28T02:34:57.478Z,99.15
2016-04-28T02:35:57.451Z,99.44
2016-04-28T02:36:57.422Z,99.53
2016-04-28T02:37:57.393Z,99.34
2016-04-28T02:38:57.364Z,99.34
2016-04-28T02:39:57.335Z,99.44
2016-04-28T02:40:57.308Z,99.72
2016-04-28T02:41:57.295Z,99.72
2016-04-28T02:42:57.250Z,99.72
2016-04-28T02:43:57.221Z,99.82
2016-04-28T02:44:57.194Z,99.99
2016-04-28T02:45:57.164Z,99.91
2016-04-28T02:46:57.136Z,99.63
2016-04-28T02:47:57.123Z,99.91
2016-04-28T02:48:57.080Z,99.99
2016-04-28T02:49:57.050Z,99.99
2016-04-28T02:50:57.021Z,99.99
2016-04-28T02:51:56.993Z,99.99
2016-04-28T02:52:56.964Z,99.99
2016-04-28T02:53:56.936Z,99.99
2016-04-28T02:54:56.907Z,99.99
2016-04-28T02:55:57.613Z,99.99
2016-04-28T02:56:56.851Z,99.99
2016-04-28T02:57:56.821Z,99.99
2016-04-28T02:58:56.793Z,99.99
2016-04-28T02:59:56.764Z,99.99
2016-04-28T03:00:56.737Z,99.99
2016-04-28T03:01:56.707Z,99.99
2016-04-28T03:02:56.679Z,99.99
2016-04-28T03:03:56.650Z,99.99
2016-04-28T03:04:56.622Z,99.99
2016-04-28T03:05:56.593Z,99.99
2016-04-28T03:06:56.564Z,99.99
2016-04-28T03:07:56.536Z,99.99
2016-04-28T03:08:56.508Z,99.99
2016-04-28T03:09:56.479Z,99.99
2016-04-28T03:10:56.450Z,99.99
2016-04-28T03:11:57.000Z,99.99
2016-04-28T03:12:56.394Z,99.99
2016-04-28T03:13:56.364Z,99.99
2016-04-28T03:14:56.336Z,99.99
2016-04-28T03:15:56.308Z,99.99
2016-04-28T03:16:56.279Z,99.96
2016-04-28T03:17:56.250Z,99.99
2016-04-28T03:18:56.222Z,99.99
2016-04-28T03:19:56.193Z,99.99
2016-04-28T03:20:56.165Z,99.77
2016-04-28T03:21:56.136Z,99.77
2016-04-28T03:22:56.108Z,99.53
2016-04-28T03:23:56.079Z,99.99
2016-04-28T03:24:56.051Z,99.99
2016-04-28T03:25:56.022Z,99.99
2016-04-28T03:26:56.196Z,99.99
2016-04-28T03:27:55.965Z,99.99
2016-04-28T03:28:55.936Z,99.99
2016-04-28T03:29:55.908Z,99.96
2016-04-28T03:30:55.879Z,99.99
2016-04-28T03:31:55.851Z,99.99
2016-04-28T03:32:55.822Z,99.87
2016-04-28T03:33:55.793Z,99.96
2016-04-28T03:34:55.765Z,99.96
2016-04-28T03:35:55.736Z,99.96
2016-04-28T03:36:55.708Z,99.87
2016-04-28T03:37:55.695Z,99.96
2016-04-28T03:38:55.651Z,99.99
2016-04-28T03:39:55.622Z,99.99
2016-04-28T03:40:55.593Z,99.99
2016-04-28T03:41:55.565Z,99.99
2016-04-28T03:42:55.536Z,99.99
2016-04-28T03:43:55.508Z,99.99
2016-04-28T03:44:55.479Z,99.99
2016-04-28T03:45:55.451Z,99.99
2016-04-28T03:46:55.422Z,99.99
2016-04-28T03:47:55.393Z,99.99
2016-04-28T03:48:55.366Z,99.99
2016-04-28T03:49:55.336Z,99.99
2016-04-28T03:50:55.308Z,99.99
2016-04-28T03:51:55.279Z,99.99
2016-04-28T03:52:55.251Z,99.96
2016-04-28T03:53:55.222Z,99.99
2016-04-28T03:54:55.193Z,99.99
2016-04-28T03:55:55.165Z,99.49
2016-04-28T03:56:55.137Z,99.77
2016-04-28T03:57:55.108Z,99.77
2016-04-28T03:58:55.079Z,99.68
2016-04-28T03:59:55.051Z,99.99
2016-04-28T04:00:55.023Z,99.87
2016-04-28T04:01:54.994Z,99.77
2016-04-28T04:02:54.965Z,99.99
2016-04-28T04:03:54.937Z,99.99
2016-04-28T04:04:54.909Z,99.96
2016-04-28T04:05:54.879Z,99.99
2016-04-28T04:06:54.851Z,99.99
2016-04-28T04:07:54.822Z,99.58
2016-04-28T04:08:54.794Z,99.49
2016-04-28T04:09:54.765Z,99.99
2016-04-28T04:10:54.737Z,99.99
2016-04-28T04:11:54.974Z,99.87
2016-04-28T04:12:54.680Z,99.99
2016-04-28T04:13:54.651Z,99.99
2016-04-28T04:14:54.622Z,99.99
2016-04-28T04:15:54.594Z,99.99
2016-04-28T04:16:54.566Z,99.99
2016-04-28T04:17:54.537Z,99.99
2016-04-28T04:18:54.508Z,99.99
2016-04-28T04:19:54.479Z,99.99
2016-04-28T04:20:54.452Z,99.99
2016-04-28T04:21:54.422Z,99.99
2016-04-28T04:22:54.394Z,99.99
2016-04-28T04:23:54.365Z,99.99
2016-04-28T04:24:54.338Z,99.99
2016-04-28T04:25:54.308Z,99.99
2016-04-28T04:26:54.280Z,99.87
2016-04-28T04:27:54.251Z,99.87
2016-04-28T04:28:54.223Z,99.99
2016-04-28T04:29:54.194Z,99.99
2016-04-28T04:30:54.165Z,99.99
2016-04-28T04:31:54.137Z,99.96
2016-04-28T04:32:54.109Z,99.68
2016-04-28T04:33:54.079Z,99.77
2016-04-28T04:34:54.051Z,99.87
2016-04-28T04:35:54.022Z,99.77
2016-04-28T04:36:54.010Z,99.68
2016-04-28T04:37:53.965Z,99.39
2016-04-28T04:38:53.937Z,99.3
2016-04-28T04:39:53.909Z,99.39
2016-04-28T04:40:53.880Z,99.3
2016-04-28T04:41:53.851Z,98.92
2016-04-28T04:42:53.822Z,98.92
2016-04-28T04:43:53.794Z,99.2
2016-04-28T04:44:53.766Z,99.49
2016-04-28T04:45:53.737Z,99.3
2016-04-28T04:46:53.708Z,99.39
2016-04-28T04:47:53.680Z,99.49
2016-04-28T04:48:53.667Z,99.39
2016-04-28T04:49:53.622Z,99.3
2016-04-28T04:50:53.594Z,99.49
2016-04-28T04:51:53.566Z,99.58
2016-04-28T04:52:53.538Z,99.77
2016-04-28T04:53:53.508Z,99.58
2016-04-28T04:54:53.480Z,99.68
2016-04-28T04:55:53.452Z,99.68
2016-04-28T04:56:53.423Z,99.58
2016-04-28T04:57:53.394Z,99.49
2016-04-28T04:58:53.365Z,99.39
2016-04-28T04:59:53.338Z,99.49
2016-04-28T05:00:53.324Z,99.39
2016-04-28T05:01:53.296Z,99.58
2016-04-28T05:02:53.267Z,99.58
2016-04-28T05:03:53.239Z,99.49
2016-04-28T05:04:53.195Z,99.2
2016-04-28T05:05:53.181Z,99.39
2016-04-28T05:06:53.153Z,99.39
2016-04-28T05:07:53.125Z,99.01
2016-04-28T05:08:53.096Z,99.2
2016-04-28T05:09:53.067Z,99.68
2016-04-28T05:10:53.038Z,99.49
2016-04-28T05:11:53.431Z,99.58
2016-04-28T05:12:52.998Z,99.11
2016-04-28T05:13:52.953Z,99.3
2016-04-28T05:14:52.924Z,99.68
2016-04-28T05:15:52.897Z,98.92
2016-04-28T05:16:52.867Z,99.68
2016-04-28T05:17:52.839Z,99.68
2016-04-28T05:18:52.810Z,99.68
2016-04-28T05:19:52.783Z,99.77
2016-04-28T05:20:52.768Z,99.3
2016-04-28T05:21:52.741Z,99.11
2016-04-28T05:22:52.711Z,99.11
2016-04-28T05:23:52.682Z,99.11
2016-04-28T05:24:52.654Z,99.3
2016-04-28T05:25:52.627Z,99.39
2016-04-28T05:26:52.597Z,99.39
2016-04-28T05:27:52.568Z,99.39
2016-04-28T05:28:52.541Z,99.63
2016-04-28T05:29:52.512Z,99.54
2016-04-28T05:30:52.483Z,99.91
2016-04-28T05:31:52.454Z,99.44
2016-04-28T05:32:52.427Z,99.2
2016-04-28T05:33:52.412Z,99.49
2016-04-28T05:34:52.385Z,99.11
2016-04-28T05:35:52.356Z,99.58
2016-04-28T05:36:52.327Z,99.73
2016-04-28T05:37:52.298Z,98.63
2016-04-28T05:38:52.271Z,99.44
2016-04-28T05:39:52.242Z,99.73
2016-04-28T05:40:52.213Z,99.91
2016-04-28T05:41:52.184Z,99.44
2016-04-28T05:42:52.172Z,99.35
2016-04-28T05:43:52.143Z,99.16
2016-04-28T05:44:52.115Z,99.06
2016-04-28T05:45:52.086Z,98.87
2016-04-28T05:46:52.057Z,99.54
2016-04-28T05:47:52.029Z,98.87
2016-04-28T05:48:52.000Z,98.78
2016-04-28T05:49:51.972Z,99.26
2016-04-28T05:50:51.943Z,99.35
2016-04-28T05:51:51.915Z,98.97
2016-04-28T05:52:51.886Z,98.97
2016-04-28T05:53:51.858Z,99.16
2016-04-28T05:54:51.829Z,98.87
2016-04-28T05:55:51.816Z,99.16
2016-04-28T05:56:52.085Z,99.16
2016-04-28T05:57:51.759Z,98.49
2016-04-28T05:58:51.730Z,98.49
2016-04-28T05:59:51.702Z,99.16
2016-04-28T06:00:51.679Z,98.68
2016-04-28T06:01:51.692Z,98.59
2016-04-28T06:02:51.703Z,99.35
2016-04-28T06:03:51.715Z,99.06
2016-04-28T06:04:51.728Z,98.3
2016-04-28T06:05:51.736Z,98.3
2016-04-28T06:06:51.737Z,98.49
2016-04-28T06:07:51.724Z,98.4
2016-04-28T06:08:51.710Z,99.26
2016-04-28T06:09:51.695Z,98.54
2016-04-28T06:10:51.681Z,99.35
2016-04-28T06:11:51.657Z,99.16
2016-04-28T06:12:51.633Z,98.97
2016-04-28T06:13:51.609Z,99.06
2016-04-28T06:14:51.587Z,99.35
2016-04-28T06:15:51.562Z,99.16
2016-04-28T06:16:51.551Z,98.97
2016-04-28T06:17:51.524Z,98.97
2016-04-28T06:18:51.498Z,98.78
2016-04-28T06:19:51.471Z,99.06
2016-04-28T06:20:51.444Z,99.26
2016-04-28T06:21:51.417Z,98.97
2016-04-28T06:22:51.389Z,99.35
2016-04-28T06:23:51.360Z,98.97
2016-04-28T06:24:51.333Z,99.06
2016-04-28T06:25:51.306Z,99.16
2016-04-28T06:26:51.495Z,99.16
2016-04-28T06:27:52.531Z,98.78
2016-04-28T06:28:51.236Z,99.54
2016-04-28T06:29:51.208Z,99.16
2016-04-28T06:30:51.180Z,99.26
2016-04-28T06:31:51.151Z,98.97
2016-04-28T06:32:51.124Z,98.97
2016-04-28T06:33:51.094Z,99.26
2016-04-28T06:34:51.066Z,99.35
2016-04-28T06:35:51.054Z,98.78
2016-04-28T06:36:51.024Z,99.35
2016-04-28T06:37:50.995Z,99.21
2016-04-28T06:38:50.967Z,98.92
2016-04-28T06:39:50.939Z,98.92
2016-04-28T06:40:50.926Z,99.11
2016-04-28T06:41:50.897Z,99.21
2016-04-28T06:42:50.868Z,98.73
2016-04-28T06:43:50.840Z,98.54
2016-04-28T06:44:50.811Z,98.54
2016-04-28T06:45:50.798Z,98.35
2016-04-28T06:46:50.770Z,97.97
2016-04-28T06:47:50.757Z,98.35
2016-04-28T06:48:50.728Z,98.35
2016-04-28T06:49:50.684Z,98.45
2016-04-28T06:50:50.671Z,97.88
2016-04-28T06:51:50.643Z,97.88
2016-04-28T06:52:50.614Z,97.69
2016-04-28T06:53:50.617Z,97.41
2016-04-28T06:54:50.557Z,97.78
2016-04-28T06:55:50.544Z,97.88
2016-04-28T06:56:51.219Z,98.35
2016-04-28T06:57:50.487Z,98.07
2016-04-28T06:58:50.458Z,98.54
2016-04-28T06:59:50.429Z,98.54
2016-04-28T07:00:50.416Z,97.97
2016-04-28T07:01:50.389Z,98.26
2016-04-28T07:02:50.360Z,98.35
2016-04-28T07:03:50.331Z,97.6
2016-04-28T07:04:50.303Z,97.6
2016-04-28T07:05:50.274Z,97.41
2016-04-28T07:06:50.261Z,98.07
2016-04-28T07:07:50.232Z,98.35
2016-04-28T07:08:50.204Z,97.97
2016-04-28T07:09:50.175Z,98.73
2016-04-28T07:10:50.148Z,98.73
2016-04-28T07:11:50.134Z,98.45
2016-04-28T07:12:50.106Z,99.11
2016-04-28T07:13:50.077Z,99.26
2016-04-28T07:14:50.064Z,99.16
2016-04-28T07:15:50.036Z,98.59
2016-04-28T07:16:50.006Z,98.31
2016-04-28T07:17:49.978Z,98.5
2016-04-28T07:18:49.965Z,98.02
2016-04-28T07:19:49.936Z,98.21
2016-04-28T07:20:49.908Z,97.83
2016-04-28T07:21:49.895Z,97.31
2016-04-28T07:22:49.915Z,97.69
2016-04-28T07:23:49.840Z,97.78
2016-04-28T07:24:49.826Z,96.93
2016-04-28T07:25:49.798Z,96.93
2016-04-28T07:26:49.770Z,96.45
2016-04-28T07:27:50.053Z,96.08
2016-04-28T07:28:49.727Z,95.98
2016-04-28T07:29:49.699Z,96.26
2016-04-28T07:30:49.670Z,95.89
2016-04-28T07:31:49.658Z,95.51
2016-04-28T07:32:49.629Z,95.79
2016-04-28T07:33:49.601Z,95.6
2016-04-28T07:34:49.603Z,95.79
2016-04-28T07:35:49.559Z,95.79
2016-04-28T07:36:49.561Z,95.7
2016-04-28T07:37:49.502Z,95.75
2016-04-28T07:38:49.488Z,95.46
2016-04-28T07:39:49.460Z,96.12
2016-04-28T07:40:49.432Z,96.17
2016-04-28T07:41:51.013Z,96.6
2016-04-28T07:42:49.390Z,96.79
2016-04-28T07:43:49.362Z,96.31
2016-04-28T07:44:49.349Z,96.5
2016-04-28T07:45:49.321Z,96.84
2016-04-28T07:46:49.292Z,96.88
2016-04-28T07:47:49.263Z,96.93
2016-04-28T07:48:49.250Z,96.69
2016-04-28T07:49:49.221Z,97.88
2016-04-28T07:50:49.193Z,97.69
2016-04-28T07:51:49.164Z,97.5
2016-04-28T07:52:49.151Z,97.41
2016-04-28T07:53:49.123Z,97.88
2016-04-28T07:54:49.095Z,97.03
2016-04-28T07:55:49.082Z,96.45
2016-04-28T07:56:49.054Z,96.65
2016-04-28T07:57:49.025Z,96.93
2016-04-28T07:58:49.012Z,97.22
2016-04-28T07:59:48.983Z,96.69
2016-04-28T08:00:48.954Z,97.08
2016-04-28T08:01:48.942Z,96.12
2016-04-28T08:02:48.913Z,96.22
2016-04-28T08:03:48.900Z,96.69
2016-04-28T08:04:48.871Z,96.69
2016-04-28T08:05:48.842Z,96.69
2016-04-28T08:06:50.455Z,96.31
2016-04-28T08:07:48.813Z,96.69
2016-04-28T08:08:48.925Z,96.31
2016-04-28T08:09:48.756Z,96.65
2016-04-28T08:10:48.727Z,97.79
2016-04-28T08:11:49.526Z,97.79
2016-04-28T08:12:48.701Z,97.22
2016-04-28T08:13:48.672Z,96.46
2016-04-28T08:14:48.645Z,96.03
2016-04-28T08:15:48.631Z,96.03
2016-04-28T08:16:48.603Z,95.27
2016-04-28T08:17:48.590Z,95.56
2016-04-28T08:18:48.562Z,95.36
2016-04-28T08:19:48.548Z,95.36
2016-04-28T08:20:48.550Z,94.51
2016-04-28T08:21:48.506Z,93.94
2016-04-28T08:22:48.478Z,93.65
2016-04-28T08:23:48.466Z,92.79
2016-04-28T08:24:48.452Z,92.41
2016-04-28T08:25:48.424Z,92.99
2016-04-28T08:26:49.130Z,93.08
2016-04-28T08:27:48.383Z,93.08
2016-04-28T08:28:48.370Z,92.79
2016-04-28T08:29:48.341Z,92.89
2016-04-28T08:30:48.313Z,92.75
2016-04-28T08:31:48.299Z,93.04
2016-04-28T08:32:48.286Z,93.7
2016-04-28T08:33:48.258Z,95.12
2016-04-28T08:34:48.229Z,96.74
2016-04-28T08:35:48.216Z,97.46
2016-04-28T08:36:48.188Z,97.55
2016-04-28T08:37:48.174Z,97.93
2016-04-28T08:38:48.146Z,97.89
2016-04-28T08:39:48.133Z,96.36
2016-04-28T08:40:48.105Z,96.36
2016-04-28T08:41:48.093Z,96.08
2016-04-28T08:42:48.782Z,94.74
2016-04-28T08:43:48.051Z,94.13
2016-04-28T08:44:48.037Z,93.65
2016-04-28T08:45:48.025Z,94.32
2016-04-28T08:46:47.996Z,93.74
2016-04-28T08:47:47.983Z,92.99
2016-04-28T08:48:47.954Z,92.41
2016-04-28T08:49:47.942Z,93.08
2016-04-28T08:50:47.914Z,92.89
2016-04-28T08:51:47.900Z,93.18
2016-04-28T08:52:47.872Z,92.41
2016-04-28T08:53:47.858Z,92.99
2016-04-28T08:54:47.830Z,92.79
2016-04-28T08:55:47.817Z,93.37
2016-04-28T08:56:47.805Z,93.08
2016-04-28T08:57:48.557Z,94.22
2016-04-28T08:58:47.763Z,96.79
2016-04-28T08:59:47.733Z,98.03
2016-04-28T09:00:47.705Z,98.65
2016-04-28T09:01:47.693Z,96.94
2016-04-28T09:02:47.664Z,95.6
2016-04-28T09:03:47.652Z,96.08
2016-04-28T09:04:47.638Z,95.51
2016-04-28T09:05:49.375Z,94.56
2016-04-28T09:06:47.597Z,94.74
2016-04-28T09:07:47.584Z,94.93
2016-04-28T09:08:47.555Z,93.98
2016-04-28T09:09:47.542Z,93.84
2016-04-28T09:10:47.513Z,93.08
2016-04-28T09:11:47.626Z,92.79
2016-04-28T09:12:47.519Z,91.65
2016-04-28T09:13:47.460Z,92.03
2016-04-28T09:14:47.446Z,91.65
2016-04-28T09:15:47.418Z,91.79
2016-04-28T09:16:47.404Z,91.51
2016-04-28T09:17:47.376Z,91.6
2016-04-28T09:18:47.364Z,91.6
2016-04-28T09:19:47.334Z,91.51
2016-04-28T09:20:47.337Z,91.79
2016-04-28T09:21:47.309Z,91.79
2016-04-28T09:22:47.280Z,91.79
2016-04-28T09:23:47.267Z,91.79
2016-04-28T09:24:47.239Z,92.32
2016-04-28T09:25:47.211Z,92.89
2016-04-28T09:26:47.322Z,92.7
2016-04-28T09:27:47.169Z,92.79
2016-04-28T09:28:47.155Z,93.08
2016-04-28T09:29:47.143Z,93.65
2016-04-28T09:30:47.098Z,93.74
2016-04-28T09:31:47.741Z,93.46
2016-04-28T09:32:47.058Z,93.65
2016-04-28T09:33:47.044Z,93.55
2016-04-28T09:34:47.015Z,93.65
2016-04-28T09:35:46.987Z,94.13
2016-04-28T09:36:46.974Z,93.94
2016-04-28T09:37:46.946Z,94.22
2016-04-28T09:38:46.932Z,93.94
2016-04-28T09:39:46.904Z,94.22
2016-04-28T09:40:46.875Z,94.79
2016-04-28T09:41:48.050Z,94.79
2016-04-28T09:42:46.850Z,94.98
2016-04-28T09:43:46.806Z,94.79
2016-04-28T09:44:46.793Z,94.51
2016-04-28T09:45:46.779Z,94.89
2016-04-28T09:46:46.751Z,94.27
2016-04-28T09:47:46.722Z,94.51
2016-04-28T09:48:46.756Z,94.08
2016-04-28T09:49:46.681Z,94.18
2016-04-28T09:50:46.653Z,94.37
2016-04-28T09:51:46.639Z,94.46
2016-04-28T09:52:46.783Z,95.03
2016-04-28T09:53:46.583Z,94.27
2016-04-28T09:54:46.569Z,94.46
2016-04-28T09:55:46.541Z,94.46
2016-04-28T09:56:46.527Z,94.18
2016-04-28T09:57:47.311Z,93.89
2016-04-28T09:58:46.486Z,94.27
2016-04-28T09:59:46.458Z,93.51
2016-04-28T10:00:46.430Z,93.65
2016-04-28T10:01:46.400Z,93.84
2016-04-28T10:02:46.388Z,94.89
2016-04-28T10:03:46.360Z,94.89
2016-04-28T10:04:46.330Z,94.6
2016-04-28T10:05:46.318Z,94.42
2016-04-28T10:06:46.305Z,93.94
2016-04-28T10:07:46.980Z,93.65
2016-04-28T10:08:46.249Z,93.7
2016-04-28T10:09:46.219Z,94.08
2016-04-28T10:10:46.207Z,94.65
2016-04-28T10:11:46.178Z,94.46
2016-04-28T10:12:46.148Z,95.12
2016-04-28T10:13:46.120Z,95.32
2016-04-28T10:14:46.108Z,95.32
2016-04-28T10:15:46.142Z,95.79
2016-04-28T10:16:46.081Z,95.89
2016-04-28T10:17:46.147Z,95.6
2016-04-28T10:18:46.009Z,95.51
2016-04-28T10:19:45.978Z,95.79
2016-04-28T10:20:45.948Z,96.55
2016-04-28T10:21:45.937Z,96.84
2016-04-28T10:22:50.989Z,97.12
2016-04-28T10:23:45.879Z,96.69
2016-04-28T10:24:45.850Z,97.74
2016-04-28T10:25:45.838Z,98.03
2016-04-28T10:26:45.809Z,97.45
2016-04-28T10:27:45.797Z,98.03
2016-04-28T10:28:45.783Z,98.27
2016-04-28T10:29:45.739Z,98.08
2016-04-28T10:30:45.711Z,98.27
2016-04-28T10:31:45.697Z,97.88
2016-04-28T10:32:45.669Z,98.08
2016-04-28T10:33:45.656Z,98.55
2016-04-28T10:34:45.627Z,98.22
2016-04-28T10:35:45.614Z,97.93
2016-04-28T10:36:45.586Z,97.46
2016-04-28T10:37:45.574Z,97.17
2016-04-28T10:38:45.545Z,96.79
2016-04-28T10:39:45.515Z,96.22
2016-04-28T10:40:45.502Z,96.79
2016-04-28T10:41:45.834Z,96.7
2016-04-28T10:42:45.446Z,96.41
2016-04-28T10:43:45.432Z,96.27
2016-04-28T10:44:45.404Z,96.08
2016-04-28T10:45:45.391Z,95.7
2016-04-28T10:46:45.394Z,95.98
2016-04-28T10:47:45.351Z,95.79
2016-04-28T10:48:45.321Z,95.98
2016-04-28T10:49:45.293Z,95.7
2016-04-28T10:50:45.280Z,95.41
2016-04-28T10:51:45.282Z,95.51
2016-04-28T10:52:45.239Z,95.32
2016-04-28T10:53:45.209Z,95.89
2016-04-28T10:54:45.197Z,95.32
2016-04-28T10:55:45.168Z,95.6
2016-04-28T10:56:45.812Z,95.7
2016-04-28T10:57:46.220Z,95.12
2016-04-28T10:58:45.098Z,95.03
2016-04-28T10:59:45.086Z,95.51
2016-04-28T11:00:45.056Z,95.32
2016-04-28T11:01:45.044Z,95.41
2016-04-28T11:02:45.016Z,95.51
2016-04-28T11:03:44.987Z,95.51
2016-04-28T11:04:44.974Z,95.6
2016-04-28T11:05:44.945Z,95.32
2016-04-28T11:06:44.932Z,95.32
2016-04-28T11:07:44.904Z,94.84
2016-04-28T11:08:44.891Z,94.93
2016-04-28T11:09:44.862Z,94.79
2016-04-28T11:10:44.833Z,94.13
2016-04-28T11:11:44.821Z,94.22
2016-04-28T11:12:45.933Z,94.89
2016-04-28T11:13:44.763Z,94.7
2016-04-28T11:14:44.751Z,94.79
2016-04-28T11:15:44.722Z,94.98
2016-04-28T11:16:44.709Z,95.17
2016-04-28T11:17:44.681Z,95.46
2016-04-28T11:18:44.652Z,95.08
2016-04-28T11:19:44.639Z,94.79
2016-04-28T11:20:44.605Z,94.7
2016-04-28T11:21:44.591Z,94.79
2016-04-28T11:22:44.564Z,94.6
2016-04-28T11:23:44.535Z,94.7
2016-04-28T11:24:44.522Z,95.17
2016-04-28T11:25:44.509Z,94.6
2016-04-28T11:26:44.480Z,94.42
2016-04-28T11:27:45.186Z,94.98
2016-04-28T11:28:44.423Z,95.27
2016-04-28T11:29:44.410Z,94.98
2016-04-28T11:30:44.382Z,94.98
2016-04-28T11:31:44.368Z,94.79
2016-04-28T11:32:44.341Z,94.89
2016-04-28T11:33:44.328Z,95.46
2016-04-28T11:34:44.299Z,95.65
2016-04-28T11:35:44.270Z,95.94
2016-04-28T11:36:44.257Z,95.46
2016-04-28T11:37:44.228Z,95.75
2016-04-28T11:38:44.215Z,95.94
2016-04-28T11:39:44.187Z,95.84
2016-04-28T11:40:44.205Z,95.17
2016-04-28T11:41:44.255Z,95.65
2016-04-28T11:42:44.226Z,94.98
2016-04-28T11:43:44.104Z,94.98
2016-04-28T11:44:44.263Z,95.79
2016-04-28T11:45:44.173Z,95.6
2016-04-28T11:46:44.034Z,95.98
2016-04-28T11:47:44.021Z,96.08
2016-04-28T11:48:43.993Z,95.65
2016-04-28T11:49:43.964Z,95.7
2016-04-28T11:50:43.951Z,96.17
2016-04-28T11:51:43.923Z,96.26
2016-04-28T11:52:43.910Z,96.08
2016-04-28T11:53:43.881Z,97.03
2016-04-28T11:54:43.852Z,96.74
2016-04-28T11:55:43.839Z,96.84
2016-04-28T11:56:43.811Z,96.74
2016-04-28T11:57:43.798Z,97.13
2016-04-28T11:58:43.770Z,97.22
2016-04-28T11:59:43.756Z,97.41
2016-04-28T12:00:43.728Z,96.84
2016-04-28T12:01:43.716Z,96.98
2016-04-28T12:02:43.733Z,96.89
2016-04-28T12:03:43.658Z,96.51
2016-04-28T12:04:43.644Z,96.79
2016-04-28T12:05:43.616Z,96.98
2016-04-28T12:06:43.604Z,96.22
2016-04-28T12:07:43.575Z,96.98
2016-04-28T12:08:43.546Z,96.12
2016-04-28T12:09:43.533Z,96.03
2016-04-28T12:10:43.520Z,95.65
2016-04-28T12:11:43.492Z,96.08
2016-04-28T12:12:43.948Z,96.08
2016-04-28T12:13:43.451Z,96.17
2016-04-28T12:14:43.421Z,96.36
2016-04-28T12:15:43.409Z,96.17
2016-04-28T12:16:43.381Z,96.12
2016-04-28T12:17:43.540Z,96.41
2016-04-28T12:18:43.339Z,96.41
2016-04-28T12:19:43.326Z,96.12
2016-04-28T12:20:43.298Z,95.79
2016-04-28T12:21:43.285Z,95.36
2016-04-28T12:22:43.256Z,96.03
2016-04-28T12:23:43.243Z,95.94
2016-04-28T12:24:43.214Z,96.36
2016-04-28T12:25:43.186Z,95.46
2016-04-28T12:26:43.172Z,95.32
2016-04-28T12:27:43.175Z,95.7
2016-04-28T12:28:43.131Z,95.32
2016-04-28T12:29:43.103Z,94.93
2016-04-28T12:30:43.090Z,94.93
2016-04-28T12:31:43.061Z,94.74
2016-04-28T12:32:43.033Z,95.08
2016-04-28T12:33:43.020Z,95.12
2016-04-28T12:34:42.992Z,95.46
2016-04-28T12:35:42.977Z,95.51
2016-04-28T12:36:42.949Z,95.32
2016-04-28T12:37:42.937Z,95.08
2016-04-28T12:38:42.940Z,95.46
2016-04-28T12:39:42.880Z,96.03
2016-04-28T12:40:42.867Z,95.94
2016-04-28T12:41:42.838Z,95.84
2016-04-28T12:42:42.810Z,95.84
2016-04-28T12:43:42.797Z,96.46
2016-04-28T12:44:42.769Z,96.36
2016-04-28T12:45:42.754Z,96.65
2016-04-28T12:46:42.726Z,97.41
2016-04-28T12:47:42.714Z,96.94
2016-04-28T12:48:42.685Z,97.13
2016-04-28T12:49:42.656Z,97.13
2016-04-28T12:50:42.643Z,97.22
2016-04-28T12:51:42.615Z,97.03
2016-04-28T12:52:42.587Z,97.13
2016-04-28T12:53:42.573Z,97.8